sensor_id;sensor_type;location;lat;lon;timestamp;P1;durP1;ratioP1;P2;durP2;ratioP2
67896;SDS011;54698;48.428;9.964;2022-11-15T00:01:21;9.70;;;4.77;;
67896;SDS011;54698;48.428;9.964;2022-11-15T00:03:50;9.27;;;5.37;;
67896;SDS011;54698;48.428;9.964;2022-11-15T00:06:16;8.87;;;4.07;;
67896;SDS011;54698;48.428;9.964;2022-11-15T00:08:42;11.27;;;4.90;;
67896;SDS011;54698;48.428;9.964;2022-11-15T00:11:10;7.87;;;4.13;;
67896;SDS011;54698;48.428;9.964;2022-11-15T00:13:37;12.67;;;4.40;;
67896;SDS011;54698;48.428;9.964;2022-11-15T00:16:03;9.40;;;4.23;;
67896;SDS011;54698;48.428;9.964;2022-11-15T00:18:29;11.47;;;5.07;;
67896;SDS011;54698;48.428;9.964;2022-11-15T00:20:55;9.00;;;4.60;;
67896;SDS011;54698;48.428;9.964;2022-11-15T00:23:28;8.52;;;3.83;;
67896;SDS011;54698;48.428;9.964;2022-11-15T00:25:57;7.60;;;4.43;;
67896;SDS011;54698;48.428;9.964;2022-11-15T00:28:25;9.03;;;4.07;;
67896;SDS011;54698;48.428;9.964;2022-11-15T00:30:51;9.90;;;4.97;;
67896;SDS011;54698;48.428;9.964;2022-11-15T00:33:17;10.53;;;4.40;;
67896;SDS011;54698;48.428;9.964;2022-11-15T00:35:43;7.97;;;4.00;;
67896;SDS011;54698;48.428;9.964;2022-11-15T00:38:09;11.20;;;5.07;;
67896;SDS011;54698;48.428;9.964;2022-11-15T00:40:35;10.37;;;4.63;;
67896;SDS011;54698;48.428;9.964;2022-11-15T00:43:01;7.03;;;3.87;;
67896;SDS011;54698;48.428;9.964;2022-11-15T00:45:28;10.20;;;4.77;;
67896;SDS011;54698;48.428;9.964;2022-11-15T00:47:54;8.97;;;4.27;;
67896;SDS011;54698;48.428;9.964;2022-11-15T00:50:20;9.43;;;4.30;;
67896;SDS011;54698;48.428;9.964;2022-11-15T00:52:45;8.83;;;4.03;;
67896;SDS011;54698;48.428;9.964;2022-11-15T00:55:13;10.27;;;4.27;;
67896;SDS011;54698;48.428;9.964;2022-11-15T00:57:39;9.57;;;5.23;;
67896;SDS011;54698;48.428;9.964;2022-11-15T01:00:06;9.90;;;4.50;;
67896;SDS011;54698;48.428;9.964;2022-11-15T01:02:35;10.57;;;4.93;;
67896;SDS011;54698;48.428;9.964;2022-11-15T01:05:00;9.00;;;4.33;;
67896;SDS011;54698;48.428;9.964;2022-11-15T01:07:26;9.63;;;4.30;;
67896;SDS011;54698;48.428;9.964;2022-11-15T01:09:52;11.63;;;5.03;;
67896;SDS011;54698;48.428;9.964;2022-11-15T01:12:18;10.90;;;4.63;;
67896;SDS011;54698;48.428;9.964;2022-11-15T01:14:44;9.23;;;5.23;;
67896;SDS011;54698;48.428;9.964;2022-11-15T01:17:10;7.83;;;4.03;;
67896;SDS011;54698;48.428;9.964;2022-11-15T01:19:37;8.90;;;4.40;;
67896;SDS011;54698;48.428;9.964;2022-11-15T01:22:03;9.33;;;4.37;;
67896;SDS011;54698;48.428;9.964;2022-11-15T01:24:29;10.60;;;5.43;;
67896;SDS011;54698;48.428;9.964;2022-11-15T01:26:56;10.63;;;5.07;;
67896;SDS011;54698;48.428;9.964;2022-11-15T01:29:22;9.30;;;5.27;;
67896;SDS011;54698;48.428;9.964;2022-11-15T01:31:47;10.73;;;4.73;;
67896;SDS011;54698;48.428;9.964;2022-11-15T01:34:13;8.17;;;4.03;;
67896;SDS011;54698;48.428;9.964;2022-11-15T01:36:41;14.63;;;5.50;;
67896;SDS011;54698;48.428;9.964;2022-11-15T01:39:07;11.57;;;5.30;;
67896;SDS011;54698;48.428;9.964;2022-11-15T01:41:33;10.57;;;4.43;;
67896;SDS011;54698;48.428;9.964;2022-11-15T01:47:06;10.93;;;5.20;;
67896;SDS011;54698;48.428;9.964;2022-11-15T01:49:38;8.63;;;4.30;;
67896;SDS011;54698;48.428;9.964;2022-11-15T01:52:12;9.57;;;5.23;;
67896;SDS011;54698;48.428;9.964;2022-11-15T01:54:42;10.68;;;5.40;;
67896;SDS011;54698;48.428;9.964;2022-11-15T01:57:09;9.40;;;4.73;;
67896;SDS011;54698;48.428;9.964;2022-11-15T01:59:37;9.13;;;4.90;;
67896;SDS011;54698;48.428;9.964;2022-11-15T02:02:05;9.60;;;5.27;;
67896;SDS011;54698;48.428;9.964;2022-11-15T02:04:31;10.17;;;5.17;;
67896;SDS011;54698;48.428;9.964;2022-11-15T02:07:01;8.83;;;4.53;;
67896;SDS011;54698;48.428;9.964;2022-11-15T02:09:30;7.87;;;4.70;;
67896;SDS011;54698;48.428;9.964;2022-11-15T02:11:56;11.03;;;4.83;;
67896;SDS011;54698;48.428;9.964;2022-11-15T02:14:22;11.37;;;4.10;;
67896;SDS011;54698;48.428;9.964;2022-11-15T02:16:53;10.37;;;4.70;;
67896;SDS011;54698;48.428;9.964;2022-11-15T02:19:36;8.50;;;4.23;;
67896;SDS011;54698;48.428;9.964;2022-11-15T02:22:27;9.87;;;4.67;;
67896;SDS011;54698;48.428;9.964;2022-11-15T02:25:11;14.07;;;5.47;;
67896;SDS011;54698;48.428;9.964;2022-11-15T02:28:16;13.37;;;5.70;;
67896;SDS011;54698;48.428;9.964;2022-11-15T02:31:15;11.43;;;4.60;;
67896;SDS011;54698;48.428;9.964;2022-11-15T02:33:52;12.03;;;5.53;;
67896;SDS011;54698;48.428;9.964;2022-11-15T02:36:28;15.10;;;5.10;;
67896;SDS011;54698;48.428;9.964;2022-11-15T02:39:05;8.57;;;4.57;;
67896;SDS011;54698;48.428;9.964;2022-11-15T02:41:39;12.00;;;4.10;;
67896;SDS011;54698;48.428;9.964;2022-11-15T02:44:13;14.13;;;4.70;;
67896;SDS011;54698;48.428;9.964;2022-11-15T02:46:48;13.97;;;5.97;;
67896;SDS011;54698;48.428;9.964;2022-11-15T02:49:18;11.80;;;5.67;;
67896;SDS011;54698;48.428;9.964;2022-11-15T02:51:45;11.17;;;5.83;;
67896;SDS011;54698;48.428;9.964;2022-11-15T02:54:14;13.23;;;6.13;;
67896;SDS011;54698;48.428;9.964;2022-11-15T02:56:45;10.65;;;5.47;;
67896;SDS011;54698;48.428;9.964;2022-11-15T02:59:29;11.23;;;5.80;;
67896;SDS011;54698;48.428;9.964;2022-11-15T03:02:18;12.27;;;5.57;;
67896;SDS011;54698;48.428;9.964;2022-11-15T03:04:57;14.05;;;7.00;;
67896;SDS011;54698;48.428;9.964;2022-11-15T03:07:30;9.47;;;5.50;;
67896;SDS011;54698;48.428;9.964;2022-11-15T03:10:02;11.50;;;5.10;;
67896;SDS011;54698;48.428;9.964;2022-11-15T03:12:35;11.57;;;5.35;;
67896;SDS011;54698;48.428;9.964;2022-11-15T03:15:08;11.40;;;5.60;;
67896;SDS011;54698;48.428;9.964;2022-11-15T03:20:11;11.53;;;5.23;;
67896;SDS011;54698;48.428;9.964;2022-11-15T03:22:40;12.10;;;5.37;;
67896;SDS011;54698;48.428;9.964;2022-11-15T03:25:09;10.43;;;5.57;;
67896;SDS011;54698;48.428;9.964;2022-11-15T03:27:40;13.07;;;6.43;;
67896;SDS011;54698;48.428;9.964;2022-11-15T03:30:12;12.17;;;6.43;;
67896;SDS011;54698;48.428;9.964;2022-11-15T03:32:40;9.87;;;5.47;;
67896;SDS011;54698;48.428;9.964;2022-11-15T03:35:12;11.48;;;5.88;;
67896;SDS011;54698;48.428;9.964;2022-11-15T03:37:43;12.50;;;6.17;;
67896;SDS011;54698;48.428;9.964;2022-11-15T03:40:14;10.15;;;5.70;;
67896;SDS011;54698;48.428;9.964;2022-11-15T03:42:42;9.70;;;4.90;;
67896;SDS011;54698;48.428;9.964;2022-11-15T03:45:17;8.57;;;4.77;;
67896;SDS011;54698;48.428;9.964;2022-11-15T03:47:51;11.23;;;5.60;;
67896;SDS011;54698;48.428;9.964;2022-11-15T03:50:23;12.07;;;5.37;;
67896;SDS011;54698;48.428;9.964;2022-11-15T03:52:50;10.87;;;5.23;;
67896;SDS011;54698;48.428;9.964;2022-11-15T03:55:16;11.20;;;5.50;;
67896;SDS011;54698;48.428;9.964;2022-11-15T03:57:45;11.33;;;5.67;;
67896;SDS011;54698;48.428;9.964;2022-11-15T04:00:12;13.00;;;5.63;;
67896;SDS011;54698;48.428;9.964;2022-11-15T04:02:38;12.70;;;6.63;;
67896;SDS011;54698;48.428;9.964;2022-11-15T04:05:06;12.57;;;6.20;;
67896;SDS011;54698;48.428;9.964;2022-11-15T04:07:32;12.03;;;6.77;;
67896;SDS011;54698;48.428;9.964;2022-11-15T04:09:58;12.57;;;6.70;;
67896;SDS011;54698;48.428;9.964;2022-11-15T04:12:24;11.40;;;5.93;;
67896;SDS011;54698;48.428;9.964;2022-11-15T04:14:50;14.07;;;7.03;;
67896;SDS011;54698;48.428;9.964;2022-11-15T04:17:15;16.40;;;8.00;;
67896;SDS011;54698;48.428;9.964;2022-11-15T04:19:41;12.33;;;7.07;;
67896;SDS011;54698;48.428;9.964;2022-11-15T04:22:08;13.40;;;8.07;;
67896;SDS011;54698;48.428;9.964;2022-11-15T04:24:34;17.27;;;10.50;;
67896;SDS011;54698;48.428;9.964;2022-11-15T04:27:00;16.03;;;8.60;;
67896;SDS011;54698;48.428;9.964;2022-11-15T04:29:26;16.73;;;9.23;;
67896;SDS011;54698;48.428;9.964;2022-11-15T04:31:52;16.73;;;9.27;;
67896;SDS011;54698;48.428;9.964;2022-11-15T04:34:18;18.67;;;9.23;;
67896;SDS011;54698;48.428;9.964;2022-11-15T04:36:43;22.63;;;11.17;;
67896;SDS011;54698;48.428;9.964;2022-11-15T04:39:11;18.27;;;9.10;;
67896;SDS011;54698;48.428;9.964;2022-11-15T04:41:36;15.70;;;8.20;;
67896;SDS011;54698;48.428;9.964;2022-11-15T04:44:02;18.33;;;10.13;;
67896;SDS011;54698;48.428;9.964;2022-11-15T04:46:28;17.80;;;9.67;;
67896;SDS011;54698;48.428;9.964;2022-11-15T04:48:54;17.93;;;8.10;;
67896;SDS011;54698;48.428;9.964;2022-11-15T04:51:20;20.03;;;10.07;;
67896;SDS011;54698;48.428;9.964;2022-11-15T04:53:46;16.97;;;10.07;;
67896;SDS011;54698;48.428;9.964;2022-11-15T04:56:13;15.73;;;8.20;;
67896;SDS011;54698;48.428;9.964;2022-11-15T04:58:39;19.20;;;10.27;;
67896;SDS011;54698;48.428;9.964;2022-11-15T05:01:06;16.10;;;8.00;;
67896;SDS011;54698;48.428;9.964;2022-11-15T05:03:32;15.87;;;8.43;;
67896;SDS011;54698;48.428;9.964;2022-11-15T05:05:58;15.83;;;9.47;;
67896;SDS011;54698;48.428;9.964;2022-11-15T05:08:24;19.20;;;8.70;;
67896;SDS011;54698;48.428;9.964;2022-11-15T05:10:50;14.60;;;9.17;;
67896;SDS011;54698;48.428;9.964;2022-11-15T05:13:17;14.20;;;8.60;;
67896;SDS011;54698;48.428;9.964;2022-11-15T05:15:43;17.60;;;9.23;;
67896;SDS011;54698;48.428;9.964;2022-11-15T05:18:09;17.87;;;9.17;;
67896;SDS011;54698;48.428;9.964;2022-11-15T05:20:35;13.93;;;7.93;;
67896;SDS011;54698;48.428;9.964;2022-11-15T05:23:01;15.40;;;7.40;;
67896;SDS011;54698;48.428;9.964;2022-11-15T05:25:26;17.20;;;9.23;;
67896;SDS011;54698;48.428;9.964;2022-11-15T05:27:53;16.27;;;7.43;;
67896;SDS011;54698;48.428;9.964;2022-11-15T05:30:20;15.37;;;8.40;;
67896;SDS011;54698;48.428;9.964;2022-11-15T05:32:46;15.77;;;7.80;;
67896;SDS011;54698;48.428;9.964;2022-11-15T05:35:14;13.27;;;8.20;;
67896;SDS011;54698;48.428;9.964;2022-11-15T05:37:46;15.43;;;8.50;;
67896;SDS011;54698;48.428;9.964;2022-11-15T05:40:13;15.03;;;8.57;;
67896;SDS011;54698;48.428;9.964;2022-11-15T05:42:40;16.17;;;7.77;;
67896;SDS011;54698;48.428;9.964;2022-11-15T05:45:06;16.90;;;8.47;;
67896;SDS011;54698;48.428;9.964;2022-11-15T05:47:35;13.63;;;8.47;;
67896;SDS011;54698;48.428;9.964;2022-11-15T05:50:02;15.00;;;8.70;;
67896;SDS011;54698;48.428;9.964;2022-11-15T05:52:30;17.40;;;9.40;;
67896;SDS011;54698;48.428;9.964;2022-11-15T05:54:59;15.87;;;9.50;;
67896;SDS011;54698;48.428;9.964;2022-11-15T05:57:24;15.43;;;7.67;;
67896;SDS011;54698;48.428;9.964;2022-11-15T05:59:50;14.57;;;9.13;;
67896;SDS011;54698;48.428;9.964;2022-11-15T06:02:17;13.90;;;8.83;;
67896;SDS011;54698;48.428;9.964;2022-11-15T06:04:44;16.70;;;9.60;;
67896;SDS011;54698;48.428;9.964;2022-11-15T06:07:09;15.87;;;9.13;;
67896;SDS011;54698;48.428;9.964;2022-11-15T06:09:35;17.17;;;8.67;;
67896;SDS011;54698;48.428;9.964;2022-11-15T06:12:01;16.53;;;10.57;;
67896;SDS011;54698;48.428;9.964;2022-11-15T06:14:27;24.53;;;10.77;;
67896;SDS011;54698;48.428;9.964;2022-11-15T06:16:53;14.67;;;9.07;;
67896;SDS011;54698;48.428;9.964;2022-11-15T06:19:19;19.67;;;10.37;;
67896;SDS011;54698;48.428;9.964;2022-11-15T06:21:46;17.57;;;9.80;;
67896;SDS011;54698;48.428;9.964;2022-11-15T06:24:12;17.77;;;10.73;;
67896;SDS011;54698;48.428;9.964;2022-11-15T06:26:38;21.90;;;10.57;;
67896;SDS011;54698;48.428;9.964;2022-11-15T06:29:04;17.47;;;10.63;;
67896;SDS011;54698;48.428;9.964;2022-11-15T06:31:30;22.13;;;11.90;;
67896;SDS011;54698;48.428;9.964;2022-11-15T06:33:56;19.03;;;9.83;;
67896;SDS011;54698;48.428;9.964;2022-11-15T06:36:21;16.40;;;10.03;;
67896;SDS011;54698;48.428;9.964;2022-11-15T06:38:49;22.10;;;10.47;;
67896;SDS011;54698;48.428;9.964;2022-11-15T06:41:14;19.73;;;9.63;;
67896;SDS011;54698;48.428;9.964;2022-11-15T06:43:40;12.63;;;7.93;;
67896;SDS011;54698;48.428;9.964;2022-11-15T06:46:07;15.60;;;9.73;;
67896;SDS011;54698;48.428;9.964;2022-11-15T06:48:33;18.40;;;9.63;;
67896;SDS011;54698;48.428;9.964;2022-11-15T06:51:00;16.00;;;8.13;;
67896;SDS011;54698;48.428;9.964;2022-11-15T06:53:29;15.63;;;8.40;;
67896;SDS011;54698;48.428;9.964;2022-11-15T06:55:59;14.70;;;9.00;;
67896;SDS011;54698;48.428;9.964;2022-11-15T06:58:25;14.03;;;9.57;;
67896;SDS011;54698;48.428;9.964;2022-11-15T07:00:51;18.07;;;10.10;;
67896;SDS011;54698;48.428;9.964;2022-11-15T07:03:17;15.80;;;10.87;;
67896;SDS011;54698;48.428;9.964;2022-11-15T07:05:49;16.20;;;8.83;;
67896;SDS011;54698;48.428;9.964;2022-11-15T07:08:17;13.43;;;8.70;;
67896;SDS011;54698;48.428;9.964;2022-11-15T07:10:42;14.33;;;8.30;;
67896;SDS011;54698;48.428;9.964;2022-11-15T07:13:09;18.23;;;9.87;;
67896;SDS011;54698;48.428;9.964;2022-11-15T07:15:35;15.47;;;8.57;;
67896;SDS011;54698;48.428;9.964;2022-11-15T07:18:01;12.87;;;7.87;;
67896;SDS011;54698;48.428;9.964;2022-11-15T07:20:27;15.13;;;8.60;;
67896;SDS011;54698;48.428;9.964;2022-11-15T07:22:58;14.53;;;7.57;;
67896;SDS011;54698;48.428;9.964;2022-11-15T07:25:25;14.98;;;7.50;;
67896;SDS011;54698;48.428;9.964;2022-11-15T07:27:53;17.73;;;8.97;;
67896;SDS011;54698;48.428;9.964;2022-11-15T07:30:21;15.07;;;8.27;;
67896;SDS011;54698;48.428;9.964;2022-11-15T07:32:47;17.37;;;10.47;;
67896;SDS011;54698;48.428;9.964;2022-11-15T07:35:17;16.00;;;9.00;;
67896;SDS011;54698;48.428;9.964;2022-11-15T07:37:43;17.37;;;10.23;;
67896;SDS011;54698;48.428;9.964;2022-11-15T07:40:09;18.23;;;11.03;;
67896;SDS011;54698;48.428;9.964;2022-11-15T07:42:36;17.67;;;9.57;;
67896;SDS011;54698;48.428;9.964;2022-11-15T07:45:01;15.37;;;9.63;;
67896;SDS011;54698;48.428;9.964;2022-11-15T07:47:29;17.43;;;9.20;;
67896;SDS011;54698;48.428;9.964;2022-11-15T07:49:55;15.37;;;9.30;;
67896;SDS011;54698;48.428;9.964;2022-11-15T07:52:21;19.50;;;10.77;;
67896;SDS011;54698;48.428;9.964;2022-11-15T07:54:47;18.07;;;8.87;;
67896;SDS011;54698;48.428;9.964;2022-11-15T07:57:13;15.40;;;8.80;;
67896;SDS011;54698;48.428;9.964;2022-11-15T07:59:39;14.50;;;8.33;;
67896;SDS011;54698;48.428;9.964;2022-11-15T08:02:04;15.93;;;8.20;;
67896;SDS011;54698;48.428;9.964;2022-11-15T08:04:32;19.93;;;8.83;;
67896;SDS011;54698;48.428;9.964;2022-11-15T08:06:58;16.43;;;9.13;;
67896;SDS011;54698;48.428;9.964;2022-11-15T08:09:23;16.10;;;8.97;;
67896;SDS011;54698;48.428;9.964;2022-11-15T08:11:49;17.27;;;8.57;;
67896;SDS011;54698;48.428;9.964;2022-11-15T08:14:15;17.47;;;10.67;;
67896;SDS011;54698;48.428;9.964;2022-11-15T08:16:41;25.70;;;13.80;;
67896;SDS011;54698;48.428;9.964;2022-11-15T08:19:06;23.27;;;13.57;;
67896;SDS011;54698;48.428;9.964;2022-11-15T08:21:34;26.03;;;15.20;;
67896;SDS011;54698;48.428;9.964;2022-11-15T08:23:59;21.40;;;12.67;;
67896;SDS011;54698;48.428;9.964;2022-11-15T08:26:25;21.07;;;13.40;;
67896;SDS011;54698;48.428;9.964;2022-11-15T08:28:51;22.87;;;12.43;;
67896;SDS011;54698;48.428;9.964;2022-11-15T08:31:17;20.83;;;11.63;;
67896;SDS011;54698;48.428;9.964;2022-11-15T08:33:44;17.57;;;11.00;;
67896;SDS011;54698;48.428;9.964;2022-11-15T08:36:11;19.13;;;10.80;;
67896;SDS011;54698;48.428;9.964;2022-11-15T08:38:42;17.60;;;10.73;;
67896;SDS011;54698;48.428;9.964;2022-11-15T08:41:09;14.97;;;8.97;;
67896;SDS011;54698;48.428;9.964;2022-11-15T08:43:39;13.43;;;8.73;;
67896;SDS011;54698;48.428;9.964;2022-11-15T08:46:04;15.13;;;8.40;;
67896;SDS011;54698;48.428;9.964;2022-11-15T08:48:30;17.07;;;10.70;;
67896;SDS011;54698;48.428;9.964;2022-11-15T08:50:56;14.63;;;7.63;;
67896;SDS011;54698;48.428;9.964;2022-11-15T08:53:22;13.07;;;7.10;;
67896;SDS011;54698;48.428;9.964;2022-11-15T08:55:50;15.10;;;7.63;;
67896;SDS011;54698;48.428;9.964;2022-11-15T08:58:15;14.03;;;7.63;;
67896;SDS011;54698;48.428;9.964;2022-11-15T09:00:41;17.83;;;9.30;;
67896;SDS011;54698;48.428;9.964;2022-11-15T09:03:07;18.60;;;8.97;;
67896;SDS011;54698;48.428;9.964;2022-11-15T09:05:35;14.97;;;8.03;;
67896;SDS011;54698;48.428;9.964;2022-11-15T09:08:01;16.80;;;7.43;;
67896;SDS011;54698;48.428;9.964;2022-11-15T09:10:27;17.10;;;8.77;;
67896;SDS011;54698;48.428;9.964;2022-11-15T09:12:56;22.50;;;7.90;;
67896;SDS011;54698;48.428;9.964;2022-11-15T09:15:22;17.13;;;9.87;;
67896;SDS011;54698;48.428;9.964;2022-11-15T09:17:48;24.13;;;8.83;;
67896;SDS011;54698;48.428;9.964;2022-11-15T09:20:14;18.67;;;9.67;;
67896;SDS011;54698;48.428;9.964;2022-11-15T09:22:40;21.83;;;9.93;;
67896;SDS011;54698;48.428;9.964;2022-11-15T09:25:06;17.30;;;9.97;;
67896;SDS011;54698;48.428;9.964;2022-11-15T09:27:33;20.80;;;10.23;;
67896;SDS011;54698;48.428;9.964;2022-11-15T09:30:01;14.60;;;9.63;;
67896;SDS011;54698;48.428;9.964;2022-11-15T09:32:27;16.03;;;9.10;;
67896;SDS011;54698;48.428;9.964;2022-11-15T09:34:54;17.43;;;8.60;;
67896;SDS011;54698;48.428;9.964;2022-11-15T09:37:20;16.53;;;8.50;;
67896;SDS011;54698;48.428;9.964;2022-11-15T09:39:45;16.90;;;8.60;;
67896;SDS011;54698;48.428;9.964;2022-11-15T09:42:20;16.17;;;8.43;;
67896;SDS011;54698;48.428;9.964;2022-11-15T09:45:09;18.43;;;9.17;;
67896;SDS011;54698;48.428;9.964;2022-11-15T09:47:52;17.67;;;10.17;;
67896;SDS011;54698;48.428;9.964;2022-11-15T09:51:03;15.40;;;8.17;;
67896;SDS011;54698;48.428;9.964;2022-11-15T09:53:34;18.67;;;8.47;;
67896;SDS011;54698;48.428;9.964;2022-11-15T09:56:10;17.15;;;8.98;;
67896;SDS011;54698;48.428;9.964;2022-11-15T09:58:44;20.03;;;9.57;;
67896;SDS011;54698;48.428;9.964;2022-11-15T10:01:28;35.37;;;11.13;;
67896;SDS011;54698;48.428;9.964;2022-11-15T10:04:05;16.40;;;9.80;;
67896;SDS011;54698;48.428;9.964;2022-11-15T10:06:31;15.60;;;8.73;;
67896;SDS011;54698;48.428;9.964;2022-11-15T10:09:03;21.13;;;10.05;;
67896;SDS011;54698;48.428;9.964;2022-11-15T10:11:38;18.83;;;10.03;;
67896;SDS011;54698;48.428;9.964;2022-11-15T10:14:08;14.48;;;9.40;;
67896;SDS011;54698;48.428;9.964;2022-11-15T10:16:52;17.42;;;9.57;;
67896;SDS011;54698;48.428;9.964;2022-11-15T10:19:38;17.95;;;9.07;;
67896;SDS011;54698;48.428;9.964;2022-11-15T10:22:21;16.60;;;10.90;;
67896;SDS011;54698;48.428;9.964;2022-11-15T10:24:53;18.95;;;10.60;;
67896;SDS011;54698;48.428;9.964;2022-11-15T10:27:36;19.92;;;12.50;;
67896;SDS011;54698;48.428;9.964;2022-11-15T10:30:02;19.73;;;12.77;;
67896;SDS011;54698;48.428;9.964;2022-11-15T10:32:37;24.75;;;13.70;;
67896;SDS011;54698;48.428;9.964;2022-11-15T10:35:16;22.15;;;13.85;;
67896;SDS011;54698;48.428;9.964;2022-11-15T10:37:44;24.00;;;14.20;;
67896;SDS011;54698;48.428;9.964;2022-11-15T10:40:14;20.67;;;14.00;;
67896;SDS011;54698;48.428;9.964;2022-11-15T10:42:43;24.50;;;12.90;;
67896;SDS011;54698;48.428;9.964;2022-11-15T10:45:22;17.50;;;10.85;;
67896;SDS011;54698;48.428;9.964;2022-11-15T10:47:53;25.77;;;13.15;;
67896;SDS011;54698;48.428;9.964;2022-11-15T10:50:46;17.40;;;9.65;;
67896;SDS011;54698;48.428;9.964;2022-11-15T10:53:16;21.67;;;12.02;;
67896;SDS011;54698;48.428;9.964;2022-11-15T10:55:48;18.90;;;12.35;;
67896;SDS011;54698;48.428;9.964;2022-11-15T10:58:21;27.95;;;13.38;;
67896;SDS011;54698;48.428;9.964;2022-11-15T11:01:04;21.02;;;12.75;;
67896;SDS011;54698;48.428;9.964;2022-11-15T11:03:37;23.08;;;11.32;;
67896;SDS011;54698;48.428;9.964;2022-11-15T11:06:09;25.60;;;12.52;;
67896;SDS011;54698;48.428;9.964;2022-11-15T11:08:37;21.73;;;14.23;;
67896;SDS011;54698;48.428;9.964;2022-11-15T11:11:04;19.65;;;11.15;;
67896;SDS011;54698;48.428;9.964;2022-11-15T11:13:31;16.35;;;10.15;;
67896;SDS011;54698;48.428;9.964;2022-11-15T11:16:05;22.80;;;13.07;;
67896;SDS011;54698;48.428;9.964;2022-11-15T11:18:48;28.50;;;14.65;;
67896;SDS011;54698;48.428;9.964;2022-11-15T11:21:23;23.45;;;12.98;;
67896;SDS011;54698;48.428;9.964;2022-11-15T11:23:58;22.55;;;12.85;;
67896;SDS011;54698;48.428;9.964;2022-11-15T11:26:35;24.00;;;13.07;;
67896;SDS011;54698;48.428;9.964;2022-11-15T11:29:12;20.13;;;12.00;;
67896;SDS011;54698;48.428;9.964;2022-11-15T11:31:51;17.95;;;11.45;;
67896;SDS011;54698;48.428;9.964;2022-11-15T11:34:33;21.90;;;11.98;;
67896;SDS011;54698;48.428;9.964;2022-11-15T11:37:11;23.02;;;13.32;;
67896;SDS011;54698;48.428;9.964;2022-11-15T11:39:47;25.30;;;11.35;;
67896;SDS011;54698;48.428;9.964;2022-11-15T11:42:26;26.15;;;13.88;;
67896;SDS011;54698;48.428;9.964;2022-11-15T11:45:02;21.80;;;12.35;;
67896;SDS011;54698;48.428;9.964;2022-11-15T11:48:07;20.98;;;10.75;;
67896;SDS011;54698;48.428;9.964;2022-11-15T11:50:39;24.05;;;13.15;;
67896;SDS011;54698;48.428;9.964;2022-11-15T11:53:09;21.65;;;11.85;;
67896;SDS011;54698;48.428;9.964;2022-11-15T11:55:40;18.70;;;11.23;;
67896;SDS011;54698;48.428;9.964;2022-11-15T11:58:11;19.98;;;11.93;;
67896;SDS011;54698;48.428;9.964;2022-11-15T12:00:43;20.08;;;10.63;;
67896;SDS011;54698;48.428;9.964;2022-11-15T12:03:18;20.83;;;11.13;;
67896;SDS011;54698;48.428;9.964;2022-11-15T12:05:54;20.27;;;11.85;;
67896;SDS011;54698;48.428;9.964;2022-11-15T12:08:27;21.70;;;10.50;;
67896;SDS011;54698;48.428;9.964;2022-11-15T12:11:03;25.58;;;11.48;;
67896;SDS011;54698;48.428;9.964;2022-11-15T12:13:35;25.15;;;10.18;;
67896;SDS011;54698;48.428;9.964;2022-11-15T12:16:03;21.83;;;10.50;;
67896;SDS011;54698;48.428;9.964;2022-11-15T12:18:37;31.23;;;10.18;;
67896;SDS011;54698;48.428;9.964;2022-11-15T12:21:05;20.50;;;9.80;;
67896;SDS011;54698;48.428;9.964;2022-11-15T12:23:39;20.30;;;7.63;;
67896;SDS011;54698;48.428;9.964;2022-11-15T12:26:14;23.13;;;8.70;;
67896;SDS011;54698;48.428;9.964;2022-11-15T12:28:45;19.85;;;8.52;;
67896;SDS011;54698;48.428;9.964;2022-11-15T12:31:15;17.80;;;8.38;;
67896;SDS011;54698;48.428;9.964;2022-11-15T12:33:46;18.52;;;7.70;;
67896;SDS011;54698;48.428;9.964;2022-11-15T12:39:07;13.25;;;7.55;;
67896;SDS011;54698;48.428;9.964;2022-11-15T12:41:34;15.98;;;7.15;;
67896;SDS011;54698;48.428;9.964;2022-11-15T12:44:02;12.60;;;7.13;;
67896;SDS011;54698;48.428;9.964;2022-11-15T12:49:47;11.38;;;6.68;;
67896;SDS011;54698;48.428;9.964;2022-11-15T12:52:13;12.38;;;6.68;;
67896;SDS011;54698;48.428;9.964;2022-11-15T12:54:55;12.38;;;6.93;;
67896;SDS011;54698;48.428;9.964;2022-11-15T12:57:53;14.40;;;6.78;;
67896;SDS011;54698;48.428;9.964;2022-11-15T13:06:08;11.15;;;6.53;;
67896;SDS011;54698;48.428;9.964;2022-11-15T13:09:02;12.10;;;7.50;;
67896;SDS011;54698;48.428;9.964;2022-11-15T13:11:43;12.88;;;6.40;;
67896;SDS011;54698;48.428;9.964;2022-11-15T13:17:16;15.95;;;7.43;;
67896;SDS011;54698;48.428;9.964;2022-11-15T13:20:00;16.85;;;6.65;;
67896;SDS011;54698;48.428;9.964;2022-11-15T13:22:52;12.00;;;6.95;;
67896;SDS011;54698;48.428;9.964;2022-11-15T13:28:33;13.20;;;6.72;;
67896;SDS011;54698;48.428;9.964;2022-11-15T13:31:03;12.55;;;6.75;;
67896;SDS011;54698;48.428;9.964;2022-11-15T13:33:47;12.18;;;7.00;;
67896;SDS011;54698;48.428;9.964;2022-11-15T13:36:14;15.07;;;7.70;;
67896;SDS011;54698;48.428;9.964;2022-11-15T13:38:44;12.35;;;6.72;;
67896;SDS011;54698;48.428;9.964;2022-11-15T13:41:19;12.55;;;6.68;;
67896;SDS011;54698;48.428;9.964;2022-11-15T13:43:48;12.25;;;7.38;;
67896;SDS011;54698;48.428;9.964;2022-11-15T13:46:16;13.35;;;8.45;;
67896;SDS011;54698;48.428;9.964;2022-11-15T13:48:45;14.05;;;7.50;;
67896;SDS011;54698;48.428;9.964;2022-11-15T13:51:17;12.38;;;8.30;;
67896;SDS011;54698;48.428;9.964;2022-11-15T13:56:16;12.38;;;6.82;;
67896;SDS011;54698;48.428;9.964;2022-11-15T13:58:47;13.15;;;7.88;;
67896;SDS011;54698;48.428;9.964;2022-11-15T14:01:14;15.02;;;7.82;;
67896;SDS011;54698;48.428;9.964;2022-11-15T14:03:46;13.33;;;8.20;;
67896;SDS011;54698;48.428;9.964;2022-11-15T14:06:17;14.95;;;7.75;;
67896;SDS011;54698;48.428;9.964;2022-11-15T14:08:57;14.48;;;8.52;;
67896;SDS011;54698;48.428;9.964;2022-11-15T14:11:51;14.63;;;8.30;;
67896;SDS011;54698;48.428;9.964;2022-11-15T14:14:20;12.68;;;7.95;;
67896;SDS011;54698;48.428;9.964;2022-11-15T14:16:48;14.03;;;7.93;;
67896;SDS011;54698;48.428;9.964;2022-11-15T14:22:07;13.37;;;7.27;;
67896;SDS011;54698;48.428;9.964;2022-11-15T14:24:40;11.70;;;6.78;;
67896;SDS011;54698;48.428;9.964;2022-11-15T14:27:18;13.57;;;6.67;;
67896;SDS011;54698;48.428;9.964;2022-11-15T14:29:49;12.27;;;6.97;;
67896;SDS011;54698;48.428;9.964;2022-11-15T14:32:16;12.48;;;6.40;;
67896;SDS011;54698;48.428;9.964;2022-11-15T14:34:44;12.48;;;7.68;;
67896;SDS011;54698;48.428;9.964;2022-11-15T14:37:18;14.50;;;7.78;;
67896;SDS011;54698;48.428;9.964;2022-11-15T14:39:48;13.50;;;8.20;;
67896;SDS011;54698;48.428;9.964;2022-11-15T14:42:14;14.60;;;7.33;;
67896;SDS011;54698;48.428;9.964;2022-11-15T14:44:41;13.55;;;6.88;;
67896;SDS011;54698;48.428;9.964;2022-11-15T14:47:08;13.50;;;6.53;;
67896;SDS011;54698;48.428;9.964;2022-11-15T14:49:34;13.40;;;7.50;;
67896;SDS011;54698;48.428;9.964;2022-11-15T14:51:59;14.43;;;8.83;;
67896;SDS011;54698;48.428;9.964;2022-11-15T14:54:25;13.03;;;7.27;;
67896;SDS011;54698;48.428;9.964;2022-11-15T14:56:51;15.63;;;7.97;;
67896;SDS011;54698;48.428;9.964;2022-11-15T14:59:17;16.37;;;8.37;;
67896;SDS011;54698;48.428;9.964;2022-11-15T15:01:43;13.47;;;6.70;;
67896;SDS011;54698;48.428;9.964;2022-11-15T15:04:10;14.77;;;7.10;;
67896;SDS011;54698;48.428;9.964;2022-11-15T15:06:36;14.77;;;7.40;;
67896;SDS011;54698;48.428;9.964;2022-11-15T15:09:02;21.07;;;7.83;;
67896;SDS011;54698;48.428;9.964;2022-11-15T15:11:29;13.00;;;7.53;;
67896;SDS011;54698;48.428;9.964;2022-11-15T15:13:56;13.90;;;6.83;;
67896;SDS011;54698;48.428;9.964;2022-11-15T15:16:22;12.53;;;6.63;;
67896;SDS011;54698;48.428;9.964;2022-11-15T15:18:48;11.83;;;6.80;;